Time;durP1;ratioP1;P1;durP2;ratioP2;P2;SDS_P1;SDS_P2;PMS_P1;PMS_P2;Temp;Humidity;BMP_temperature;BMP_pressure;BME280_temperature;BME280_humidity;BME280_pressure;Samples;Min_cycle;Max_cycle;Signal;HPM_P1;HPM_P2
2022/04/20 00:00:48;;;;;;;5.05;3.95;;;;;;;18.70;35.67;100531.69;1759866;81;21002;-59
2022/04/20 00:03:14;;;;;;;4.70;3.40;;;;;;;18.70;35.67;100527.55;1760214;81;21140;-59
2022/04/20 00:05:40;;;;;;;3.80;3.10;;;;;;;18.71;35.67;100529.74;1760234;81;20953;-59
2022/04/20 00:08:07;;;;;;;5.20;3.75;;;;;;;18.70;35.67;100529.48;1759764;81;20910;-59
2022/04/20 00:10:33;;;;;;;4.37;3.50;;;;;;;18.69;35.66;100525.09;1760276;81;21457;-59
2022/04/20 00:12:59;;;;;;;5.05;3.77;;;;;;;18.69;35.65;100529.22;1760114;81;21000;-59
2022/04/20 00:15:25;;;;;;;6.65;3.62;;;;;;;18.69;35.66;100531.98;1759906;81;21364;-59
2022/04/20 00:17:51;;;;;;;6.00;3.95;;;;;;;18.68;35.65;100532.55;1759864;81;20953;-59
2022/04/20 00:20:17;;;;;;;5.17;3.77;;;;;;;18.68;35.64;100525.66;1760164;81;21023;-59
2022/04/20 00:22:44;;;;;;;6.95;3.80;;;;;;;18.69;35.64;100529.22;1759886;81;20921;-59
2022/04/20 00:25:10;;;;;;;5.72;4.22;;;;;;;18.69;35.63;100533.36;1760371;81;20985;-59
2022/04/20 00:27:36;;;;;;;6.80;4.30;;;;;;;18.68;35.61;100529.78;1759793;81;21115;-59
2022/04/20 00:30:04;;;;;;;5.62;3.70;;;;;;;18.68;35.61;100530.34;1759797;81;20980;-59
2022/04/20 00:32:30;;;;;;;6.25;4.40;;;;;;;18.67;35.60;100530.11;1760193;81;21068;-59
2022/04/20 00:34:57;;;;;;;5.20;4.17;;;;;;;18.66;35.60;100537.56;1760342;81;21076;-59
2022/04/20 00:37:23;;;;;;;7.62;4.15;;;;;;;18.66;35.56;100534.81;1760127;81;21389;-59
2022/04/20 00:39:49;;;;;;;5.65;4.17;;;;;;;18.65;35.59;100540.06;1760159;81;21182;-59
2022/04/20 00:42:15;;;;;;;6.65;3.98;;;;;;;18.64;35.59;100541.17;1760201;81;20901;-59
2022/04/20 00:44:42;;;;;;;5.97;4.33;;;;;;;18.64;35.59;100539.80;1759905;81;21520;-59
2022/04/20 00:47:09;;;;;;;6.22;4.03;;;;;;;18.65;35.56;100542.00;1748659;81;20894;-59
2022/04/20 00:49:35;;;;;;;6.03;4.28;;;;;;;18.64;35.59;100548.63;1741209;82;21959;-59
2022/04/20 00:52:02;;;;;;;6.22;4.47;;;;;;;18.63;35.55;100549.19;1741230;81;21176;-59
2022/04/20 00:54:29;;;;;;;7.35;4.37;;;;;;;18.64;35.56;100550.00;1741377;81;20942;-59
2022/04/20 00:56:55;;;;;;;8.08;4.92;;;;;;;18.64;35.54;100548.63;1753156;79;20949;-59
2022/04/20 00:59:25;;;;;;;7.37;4.67;;;;;;;18.64;35.53;100540.36;1776063;80;21052;-59
2022/04/20 01:01:51;;;;;;;6.28;4.58;;;;;;;18.63;35.53;100542.86;1776631;80;21324;-59
2022/04/20 01:04:18;;;;;;;6.67;4.62;;;;;;;18.63;35.52;100546.43;1776302;80;21268;-59
2022/04/20 01:06:45;;;;;;;7.65;4.87;;;;;;;18.62;35.51;100553.09;1776093;80;21362;-59
2022/04/20 01:09:11;;;;;;;7.03;4.20;;;;;;;18.61;35.50;100549.26;1776299;80;20938;-59
2022/04/20 01:11:38;;;;;;;6.22;4.67;;;;;;;18.62;35.51;100552.27;1776416;80;20981;-59
2022/04/20 01:14:06;;;;;;;7.33;4.70;;;;;;;18.63;35.50;100549.75;1776307;80;20954;-59
2022/04/20 01:16:32;;;;;;;7.97;4.75;;;;;;;18.61;35.50;100548.70;1776460;80;21257;-59
2022/04/20 01:18:58;;;;;;;7.00;4.87;;;;;;;18.61;35.51;100549.26;1776388;80;20984;-59
2022/04/20 01:21:25;;;;;;;7.50;5.08;;;;;;;18.60;35.49;100551.75;1776133;80;21385;-59
2022/04/20 01:23:52;;;;;;;7.55;4.62;;;;;;;18.61;35.49;100550.08;1776572;80;21478;-59
2022/04/20 01:26:18;;;;;;;7.55;4.12;;;;;;;18.60;35.45;100542.92;1776509;80;20945;-59
2022/04/20 01:28:46;;;;;;;5.35;4.22;;;;;;;18.60;35.45;100541.55;1776235;80;21328;-59
2022/04/20 01:31:17;;;;;;;5.85;4.05;;;;;;;18.60;35.45;100541.55;1776381;80;20906;-59
2022/04/20 01:33:43;;;;;;;;;;;;;;;18.60;35.44;100533.84;1779325;80;21012;-59
2022/04/20 01:36:13;;;;;;;8.65;4.05;;;;;;;18.59;35.44;100536.34;1776424;80;20140;-59
2022/04/20 01:38:39;;;;;;;6.85;4.37;;;;;;;18.57;35.46;100529.78;1745816;80;21004;-59
2022/04/20 01:41:05;;;;;;;6.65;4.20;;;;;;;18.57;35.44;100525.65;1776288;80;21746;-59
2022/04/20 01:43:32;;;;;;;6.40;4.37;;;;;;;18.56;35.45;100530.90;1776434;80;21276;-59
2022/04/20 01:45:58;;;;;;;6.03;4.15;;;;;;;18.56;35.44;100523.19;1776670;80;22037;-59
2022/04/20 01:48:24;;;;;;;6.50;4.28;;;;;;;18.56;35.45;100527.33;1776584;80;20957;-59
2022/04/20 01:53:34;;;;;;;5.40;3.80;;;;;;;18.56;35.43;100528.70;1776525;80;21679;-59
2022/04/20 01:56:00;;;;;;;6.80;3.90;;;;;;;18.55;35.42;100526.50;1746063;80;21699;-60
2022/04/20 01:58:27;;;;;;;5.17;3.60;;;;;;;18.55;35.40;100520.17;1793268;79;20965;-60
2022/04/20 02:00:53;;;;;;;7.70;4.50;;;;;;;18.55;35.42;100517.42;1801474;79;21354;-60
2022/04/20 02:03:19;;;;;;;5.22;3.77;;;;;;;18.55;35.42;100518.80;1801104;79;20978;-60
2022/04/20 02:05:45;;;;;;;5.97;3.85;;;;;;;18.56;35.42;100510.80;1801311;79;21413;-60
2022/04/20 02:08:11;;;;;;;7.97;4.50;;;;;;;18.54;35.41;100506.17;1801163;79;20886;-60
2022/04/20 02:10:37;;;;;;;6.25;4.08;;;;;;;18.55;35.42;100509.16;1801137;79;20961;-60
2022/04/20 02:13:03;;;;;;;5.47;3.70;;;;;;;18.54;35.39;100506.96;1801059;79;20842;-60
2022/04/20 02:15:29;;;;;;;4.95;3.80;;;;;;;18.53;35.39;100512.24;1801464;79;20882;-60
2022/04/20 02:17:55;;;;;;;5.20;3.83;;;;;;;18.53;35.40;100516.38;1800680;79;21305;-60
2022/04/20 02:20:21;;;;;;;5.47;3.75;;;;;;;18.54;35.39;100526.25;1801175;79;20910;-60
2022/04/20 02:22:47;;;;;;;5.53;3.90;;;;;;;18.53;35.38;100519.69;1801229;79;20997;-60
2022/04/20 02:25:13;;;;;;;7.22;4.35;;;;;;;18.52;35.39;100516.11;1801056;79;20910;-60
2022/04/20 02:27:39;;;;;;;6.47;3.95;;;;;;;18.52;35.35;100510.61;1801305;79;20914;-60
2022/04/20 02:30:07;;;;;;;7.15;3.92;;;;;;;18.52;35.38;100508.37;1801399;79;21678;-60
2022/04/20 02:32:33;;;;;;;6.05;3.55;;;;;;;18.52;35.35;100506.47;1800693;79;20958;-60
2022/04/20 02:34:59;;;;;;;5.78;3.87;;;;;;;18.52;35.37;100511.13;1801476;79;20952;-60
2022/04/20 02:37:25;;;;;;;7.83;4.08;;;;;;;18.52;35.35;100511.98;1801638;79;21363;-60
2022/04/20 02:39:51;;;;;;;5.37;3.85;;;;;;;18.51;35.38;100508.94;1801255;79;21020;-60
2022/04/20 02:42:17;;;;;;;4.30;3.30;;;;;;;18.51;35.38;100513.07;1801291;79;21732;-60
2022/04/20 02:44:43;;;;;;;5.30;3.87;;;;;;;18.51;35.38;100518.58;1801389;79;20874;-60
2022/04/20 02:47:10;;;;;;;5.67;3.45;;;;;;;18.51;35.37;100516.38;1799853;79;20934;-60
2022/04/20 02:49:36;;;;;;;4.55;3.15;;;;;;;18.50;35.39;100521.66;1798171;79;20875;-60
2022/04/20 02:52:03;;;;;;;7.45;3.42;;;;;;;18.50;35.35;100538.19;1798328;79;20902;-60
2022/04/20 02:54:29;;;;;;;5.80;3.60;;;;;;;18.50;35.35;100539.57;1798180;79;21138;-60
2022/04/20 02:56:56;;;;;;;5.45;3.67;;;;;;;18.50;35.36;100539.57;1797017;79;21346;-60
2022/04/20 02:59:22;;;;;;;5.30;3.72;;;;;;;18.49;35.35;100535.18;1773504;80;21042;-60
2022/04/20 03:01:48;;;;;;;4.08;3.17;;;;;;;18.49;35.34;100537.94;1773016;80;20985;-60
2022/04/20 03:04:15;;;;;;;4.78;3.47;;;;;;;18.50;35.35;100540.95;1773497;80;21420;-60
2022/04/20 03:06:41;;;;;;;4.40;3.55;;;;;;;18.48;35.33;100536.30;1773714;80;21771;-60
2022/04/20 03:09:07;;;;;;;5.47;3.50;;;;;;;18.48;35.33;100543.18;1773149;80;21203;-60
2022/04/20 03:11:33;;;;;;;7.33;3.22;;;;;;;18.48;35.30;100540.42;1773427;80;21008;-60
2022/04/20 03:13:59;;;;;;;5.30;3.58;;;;;;;18.47;35.33;100545.12;1772914;80;21365;-60
2022/04/20 03:16:25;;;;;;;5.20;3.45;;;;;;;18.47;35.33;100547.88;1773035;80;21037;-60
2022/04/20 03:18:51;;;;;;;5.58;3.10;;;;;;;18.47;35.33;100550.62;1773275;80;21820;-60
2022/04/20 03:21:18;;;;;;;5.97;3.65;;;;;;;18.46;35.33;100555.87;1773467;80;20910;-60
2022/04/20 03:23:44;;;;;;;5.25;3.33;;;;;;;18.46;35.33;100552.33;1772908;80;21048;-60
2022/04/20 03:26:10;;;;;;;4.53;3.60;;;;;;;18.47;35.30;100556.70;1773514;80;20976;-60
2022/04/20 03:28:36;;;;;;;4.92;3.50;;;;;;;18.45;35.31;100554.27;1773239;80;20943;-60
2022/04/20 03:31:02;;;;;;;6.83;3.37;;;;;;;18.46;35.29;100559.22;1773212;80;21880;-60
2022/04/20 03:33:29;;;;;;;5.62;3.10;;;;;;;18.45;35.30;100557.58;1772963;80;20961;-60
2022/04/20 03:35:55;;;;;;;4.62;3.30;;;;;;;18.44;35.31;100552.63;1753805;80;21164;-60
2022/04/20 03:38:21;;;;;;;4.60;3.17;;;;;;;18.44;35.29;100549.88;1772893;80;21004;-60
2022/04/20 03:40:47;;;;;;;4.47;3.00;;;;;;;18.43;35.30;100548.23;1773844;80;20950;-60
2022/04/20 03:43:13;;;;;;;5.78;3.12;;;;;;;18.44;35.30;100553.19;1754272;80;21220;-60
2022/04/20 03:45:40;;;;;;;3.92;2.80;;;;;;;18.43;35.29;100559.25;1773126;80;20929;-60
2022/04/20 03:48:06;;;;;;;6.55;3.10;;;;;;;18.43;35.29;100555.69;1773365;80;20985;-60
2022/04/20 03:50:32;;;;;;;4.67;3.10;;;;;;;18.42;35.29;100563.13;1773253;80;20855;-60
2022/04/20 03:52:59;;;;;;;4.70;2.80;;;;;;;18.42;35.28;100567.81;1773535;80;21018;-60
2022/04/20 03:55:25;;;;;;;4.40;3.00;;;;;;;18.42;35.29;100571.39;1773375;80;21856;-60
2022/04/20 03:57:51;;;;;;;6.05;3.20;;;;;;;18.41;35.28;100575.85;1776991;79;20855;-60
2022/04/20 04:00:20;;;;;;;4.25;3.10;;;;;;;18.41;35.25;100575.85;1781404;80;20953;-60
2022/04/20 04:02:45;;;;;;;5.35;3.30;;;;;;;18.41;35.26;100580.80;1781523;78;20933;-60
2022/04/20 04:05:11;;;;;;;3.77;2.95;;;;;;;18.41;35.26;100581.36;1781728;80;20969;-60
2022/04/20 04:07:37;;;;;;;4.35;3.00;;;;;;;18.40;35.25;100581.09;1781625;80;21340;-60
2022/04/20 04:10:06;;;;;;;5.83;3.08;;;;;;;18.40;35.25;100583.85;1781600;80;20917;-60
2022/04/20 04:12:32;;;;;;;5.00;3.00;;;;;;;18.38;35.24;100584.15;1781739;80;20858;-60
2022/04/20 04:15:06;;;;;;;3.85;2.98;;;;;;;18.39;35.24;100589.92;1781470;80;21000;-60
2022/04/20 04:17:32;;;;;;;3.65;3.00;;;;;;;18.38;35.21;100591.03;1781997;80;21376;-60
2022/04/20 04:19:58;;;;;;;4.05;2.75;;;;;;;18.39;35.22;100591.30;1781803;80;21548;-60
2022/04/20 04:22:24;;;;;;;4.80;2.90;;;;;;;18.39;35.20;100597.36;1781636;80;21462;-60
2022/04/20 04:24:50;;;;;;;4.12;2.90;;;;;;;18.39;35.19;100597.36;1781785;80;20901;-60
2022/04/20 04:27:17;;;;;;;4.03;3.00;;;;;;;18.38;35.19;100603.43;1781580;80;21499;-60
2022/04/20 04:29:43;;;;;;;4.90;2.98;;;;;;;18.38;35.19;100605.36;1781239;80;20957;-60
2022/04/20 04:32:15;;;;;;;3.65;2.77;;;;;;;18.37;35.18;100601.00;1781145;80;21893;-60
2022/04/20 04:34:41;;;;;;;4.08;2.83;;;;;;;18.37;35.19;100605.13;1781112;80;20919;-60
2022/04/20 04:37:09;;;;;;;3.12;2.45;;;;;;;18.37;35.18;100600.45;1780542;79;20949;-60
2022/04/20 04:39:35;;;;;;;4.42;2.42;;;;;;;18.36;35.18;100605.69;1780392;80;21527;-60
2022/04/20 04:42:01;;;;;;;3.87;2.62;;;;;;;18.35;35.18;100602.67;1781086;80;21454;-60
2022/04/20 04:44:27;;;;;;;3.15;2.37;;;;;;;18.37;35.21;100610.09;1781387;80;21925;-60
2022/04/20 04:49:39;;;;;;;3.65;2.80;;;;;;;18.38;35.24;100607.56;1781292;80;20882;-60
2022/04/20 04:52:11;;;;;;;4.33;2.60;;;;;;;18.41;35.24;100593.20;1781317;80;20950;-60
2022/04/20 04:54:35;;;;;;;3.15;2.42;;;;;;;18.43;35.25;100599.20;1781532;80;20921;-60
2022/04/20 04:57:02;;;;;;;4.08;2.50;;;;;;;18.48;35.25;100600.47;1779210;79;21881;-60
2022/04/20 04:59:28;;;;;;;4.62;2.83;;;;;;;18.53;35.23;100596.27;1750729;81;20941;-60
2022/04/20 05:01:54;;;;;;;4.00;3.15;;;;;;;18.60;35.16;100597.21;1750677;81;21369;-60
2022/04/20 05:04:20;;;;;;;4.22;2.85;;;;;;;18.66;35.13;100595.43;1750473;81;20886;-60
2022/04/20 05:06:47;;;;;;;4.45;3.15;;;;;;;18.75;35.09;100599.65;1749826;81;21432;-60
2022/04/20 05:09:13;;;;;;;4.55;3.25;;;;;;;18.84;35.06;100605.24;1750172;81;21104;-60
2022/04/20 05:11:39;;;;;;;4.25;3.15;;;;;;;18.93;34.99;100604.17;1750077;81;21463;-60
2022/04/20 05:14:05;;;;;;;5.20;3.17;;;;;;;19.00;34.95;100602.38;1750901;81;21449;-60
2022/04/20 05:16:31;;;;;;;4.05;3.05;;;;;;;19.09;34.88;100612.92;1750320;81;21031;-60
2022/04/20 05:18:57;;;;;;;6.65;3.47;;;;;;;19.18;34.81;100615.98;1749768;81;20997;-60
2022/04/20 05:21:23;;;;;;;4.78;3.02;;;;;;;19.27;34.72;100611.91;1750465;81;21163;-60
2022/04/20 05:23:49;;;;;;;5.92;2.90;;;;;;;19.34;34.66;100609.55;1750690;81;20870;-60
2022/04/20 05:26:15;;;;;;;5.47;3.17;;;;;;;19.43;34.59;100608.27;1749992;81;21020;-60
2022/04/20 05:28:41;;;;;;;5.10;3.25;;;;;;;19.49;34.48;100604.23;1748466;81;21039;-60
2022/04/20 05:31:07;;;;;;;4.83;3.27;;;;;;;19.54;34.43;100607.68;1749021;81;21409;-61
2022/04/20 05:33:34;;;;;;;4.95;3.00;;;;;;;19.58;34.41;100606.48;1748603;81;21220;-61
2022/04/20 05:36:00;;;;;;;5.78;3.27;;;;;;;19.61;34.39;100606.66;1748499;81;21385;-60
2022/04/20 05:41:39;;;;;;;4.67;2.70;;;;;;;19.72;34.29;100605.02;1797488;78;21195;-61
2022/04/20 05:43:53;;;;;;;4.50;2.75;;;;;;;19.75;34.32;100601.06;1774097;79;21008;-61
2022/04/20 05:46:19;;;;;;;7.42;3.00;;;;;;;19.77;34.33;100593.30;1763026;78;21347;-64
2022/04/20 05:48:45;;;;;;;7.03;3.15;;;;;;;19.79;34.42;100585.49;1769446;79;21393;-63
2022/04/20 05:51:13;;;;;;;6.78;3.30;;;;;;;19.82;34.42;100590.93;1766267;80;21039;-63
2022/04/20 05:53:45;;;;;;;7.60;2.95;;;;;;;19.85;34.42;100587.55;1766862;79;21286;-62
2022/04/20 05:56:11;;;;;;;8.58;2.70;;;;;;;19.89;34.45;100586.61;1762215;79;21029;-63
2022/04/20 05:58:37;;;;;;;5.40;2.70;;;;;;;19.93;34.45;100588.16;1765582;79;21136;-61
2022/04/20 06:01:03;;;;;;;8.33;2.95;;;;;;;19.97;34.45;100596.05;1793487;79;21036;-61
2022/04/20 06:03:29;;;;;;;6.60;3.25;;;;;;;19.99;34.45;100591.02;1787149;79;20913;-61
2022/04/20 06:05:55;;;;;;;8.70;2.85;;;;;;;20.02;34.43;100594.54;1760059;79;20893;-61
2022/04/20 06:08:21;;;;;;;14.38;3.10;;;;;;;20.04;34.42;100589.50;1769543;79;20952;-61
2022/04/20 06:10:48;;;;;;;8.43;2.62;;;;;;;20.07;34.41;100579.22;1765560;79;21704;-61
2022/04/20 06:13:14;;;;;;;13.30;3.75;;;;;;;20.11;34.43;100575.23;1753225;80;21020;-61
2022/04/20 06:15:40;;;;;;;14.07;3.15;;;;;;;20.12;34.42;100574.08;1759394;80;20879;-61
2022/04/20 06:18:07;;;;;;;13.85;3.10;;;;;;;20.15;34.44;100574.84;1777317;80;21418;-61
2022/04/20 06:20:34;;;;;;;8.20;2.87;;;;;;;20.17;34.41;100583.05;1769376;79;20989;-61
2022/04/20 06:23:00;;;;;;;9.20;3.40;;;;;;;20.20;34.38;100576.09;1737212;79;21107;-61
2022/04/20 06:25:27;;;;;;;11.88;3.00;;;;;;;20.22;34.38;100573.80;1757117;79;21044;-60
2022/04/20 06:28:00;;;;;;;11.00;3.20;;;;;;;20.25;34.37;100573.97;1748578;81;21012;-61
2022/04/20 06:30:27;;;;;;;8.63;3.27;;;;;;;20.25;34.37;100578.11;1767533;79;20965;-61
2022/04/20 06:32:53;;;;;;;19.65;3.52;;;;;;;20.26;34.38;100570.08;1719488;82;21385;-61
2022/04/20 06:35:19;;;;;;;16.57;2.92;;;;;;;20.27;34.39;100576.42;1742295;82;21111;-61
2022/04/20 06:37:46;;;;;;;9.93;3.17;;;;;;;20.28;34.42;100567.01;1722303;82;21206;-61
2022/04/20 06:40:12;;;;;;;14.90;3.40;;;;;;;20.28;34.45;100560.10;1730512;80;21000;-61
2022/04/20 06:42:39;;;;;;;14.05;3.40;;;;;;;20.29;34.48;100565.31;1687661;83;20932;-61
2022/04/20 06:45:07;;;;;;;23.20;3.15;;;;;;;20.32;34.47;100565.27;1731268;80;21004;-61
2022/04/20 06:47:33;;;;;;;16.05;3.77;;;;;;;20.34;34.50;100563.80;1697447;82;20988;-61
2022/04/20 06:49:59;;;;;;;18.80;3.15;;;;;;;20.37;34.50;100563.70;1702082;81;20918;-61
2022/04/20 07:00:45;;;;;;;6.90;3.08;;;;;;;20.40;34.72;100569.42;1759544;79;21681;-60
2022/04/20 07:03:11;;;;;;;14.90;3.00;;;;;;;20.41;34.79;100568.27;1767974;79;21457;-60
2022/04/20 07:05:37;;;;;;;10.18;2.40;;;;;;;20.42;34.86;100559.41;1734128;82;20902;-60
2022/04/20 07:08:04;;;;;;;14.38;3.00;;;;;;;20.45;34.90;100565.70;1734647;82;20924;-60
2022/04/20 07:10:31;;;;;;;6.97;3.10;;;;;;;20.47;34.88;100568.38;1687648;83;21124;-61
2022/04/20 07:12:57;;;;;;;9.20;3.02;;;;;;;20.48;34.89;100567.25;1705142;84;21557;-61
2022/04/20 07:15:25;;;;;;;7.42;2.65;;;;;;;20.49;34.90;100574.97;1673660;85;20899;-60
2022/04/20 07:17:51;;;;;;;9.40;2.85;;;;;;;20.49;34.89;100576.36;1709917;83;20988;-60
2022/04/20 07:20:21;;;;;;;6.55;3.17;;;;;;;20.50;34.90;100566.91;1718117;81;21004;-60
2022/04/20 07:22:49;;;;;;;6.90;2.98;;;;;;;20.51;34.88;100566.59;1740482;81;21100;-60
2022/04/20 07:25:18;;;;;;;11.47;3.20;;;;;;;20.53;34.87;100565.47;1703147;83;22307;-60
2022/04/20 07:27:48;;;;;;;7.67;3.10;;;;;;;20.54;34.86;100569.27;1673961;82;21041;-60
2022/04/20 07:30:18;;;;;;;12.50;3.33;;;;;;;20.56;34.83;100571.16;1753938;81;20997;-61
2022/04/20 07:32:44;;;;;;;10.03;3.45;;;;;;;20.56;34.83;100569.77;1748212;81;21009;-61
2022/04/20 07:35:10;;;;;;;10.30;3.30;;;;;;;20.56;34.80;100562.86;1703740;84;21032;-61
2022/04/20 07:37:37;;;;;;;8.93;3.12;;;;;;;20.57;34.83;100558.16;1712514;81;21067;-61
2022/04/20 07:40:06;;;;;;;7.25;3.27;;;;;;;20.59;34.79;100551.72;1749428;79;21386;-60
2022/04/20 07:42:32;;;;;;;10.38;3.37;;;;;;;20.59;34.79;100551.16;1752454;79;21371;-60
2022/04/20 07:44:59;;;;;;;9.45;3.15;;;;;;;20.61;34.81;100550.27;1765038;80;20921;-60
2022/04/20 07:47:27;;;;;;;7.25;3.60;;;;;;;20.63;34.78;100550.75;1750348;79;21358;-60
2022/04/20 07:52:45;;;;;;;10.50;3.72;;;;;;;20.63;34.77;100539.69;1755951;80;21056;-60
2022/04/20 07:55:18;;;;;;;10.50;3.33;;;;;;;20.65;34.73;100538.81;1754330;81;21272;-60
2022/04/20 07:57:45;;;;;;;6.95;3.60;;;;;;;20.67;34.71;100537.91;1730969;80;21307;-60
2022/04/20 08:00:13;;;;;;;11.15;3.70;;;;;;;20.68;34.71;100527.09;1764115;80;21081;-60
2022/04/20 08:02:40;;;;;;;12.40;3.65;;;;;;;20.71;34.70;100532.56;1749718;80;21193;-60
2022/04/20 08:05:14;;;;;;;9.10;4.47;;;;;;;20.71;34.68;100530.59;1756308;80;21036;-61
2022/04/20 08:07:42;;;;;;;8.38;4.03;;;;;;;20.72;34.69;100522.55;1750945;80;21350;-60
2022/04/20 08:10:09;;;;;;;12.07;3.62;;;;;;;20.72;34.69;100523.11;1753011;80;20977;-59
2022/04/20 08:12:37;;;;;;;8.58;3.33;;;;;;;20.74;34.70;100518.09;1749004;80;21073;-60
2022/04/20 08:15:04;;;;;;;9.20;3.90;;;;;;;20.76;34.70;100515.79;1756422;80;21241;-60
2022/04/20 08:17:31;;;;;;;12.28;3.98;;;;;;;20.75;34.70;100506.68;1745001;80;21028;-60
2022/04/20 08:19:58;;;;;;;11.90;4.10;;;;;;;20.77;34.69;100506.36;1758484;79;20965;-60
2022/04/20 08:22:24;;;;;;;6.45;3.87;;;;;;;20.79;34.67;100499.95;1760606;80;20998;-60
2022/04/20 08:24:51;;;;;;;7.37;3.60;;;;;;;20.78;34.68;100494.99;1743243;80;21204;-60
2022/04/20 08:27:19;;;;;;;8.05;3.40;;;;;;;20.79;34.70;100495.21;1771257;80;22405;-60
2022/04/20 08:29:47;;;;;;;6.70;3.75;;;;;;;20.82;34.80;100499.30;1767709;80;20912;-60
2022/04/20 08:32:16;;;;;;;7.15;3.22;;;;;;;20.84;34.86;100499.20;1759113;79;20972;-60
2022/04/20 08:34:44;;;;;;;6.45;3.72;;;;;;;20.87;34.90;100494.42;1751111;81;20972;-60
2022/04/20 08:37:10;;;;;;;8.70;4.12;;;;;;;20.89;34.92;100500.42;1765046;79;21047;-58
2022/04/20 08:39:39;;;;;;;12.23;4.22;;;;;;;20.91;34.91;100500.11;1748305;80;21265;-59
2022/04/20 08:42:11;;;;;;;7.55;3.47;;;;;;;20.93;34.90;100501.39;1759240;81;21445;-58
2022/04/20 08:44:37;;;;;;;8.45;3.45;;;;;;;20.94;34.90;100508.55;1754702;80;21339;-58
2022/04/20 08:47:07;;;;;;;6.50;3.62;;;;;;;20.95;34.94;100512.95;1761526;80;20973;-58
2022/04/20 08:49:31;;;;;;;11.00;3.83;;;;;;;20.96;34.95;100516.53;1774170;78;20953;-58
2022/04/20 08:54:44;;;;;;;8.53;3.75;;;;;;;20.99;34.98;100524.17;1756231;79;21422;-58
2022/04/20 08:57:15;;;;;;;6.08;3.65;;;;;;;20.97;34.96;100516.19;1751790;80;20961;-58
2022/04/20 08:59:48;;;;;;;17.15;4.30;;;;;;;21.00;35.01;100518.08;1768171;80;22030;-58
2022/04/20 09:02:16;;;;;;;10.45;4.10;;;;;;;21.01;35.02;100526.59;1732719;82;21040;-58
2022/04/20 09:04:42;;;;;;;6.47;3.52;;;;;;;21.01;35.01;100527.97;1744169;82;21208;-58
2022/04/20 09:07:09;;;;;;;9.43;4.10;;;;;;;21.02;35.03;100528.22;1702183;82;20918;-58
2022/04/20 09:09:35;;;;;;;8.58;4.15;;;;;;;21.03;35.01;100525.14;1696227;83;21503;-58
2022/04/20 09:12:05;;;;;;;8.20;4.50;;;;;;;21.04;35.00;100532.88;1686804;82;21029;-58
2022/04/20 09:14:31;;;;;;;6.42;4.12;;;;;;;21.06;35.01;100533.34;1734819;80;21238;-58
2022/04/20 09:16:57;;;;;;;9.75;4.03;;;;;;;21.07;34.99;100536.36;1778328;80;21023;-58
2022/04/20 09:19:26;;;;;;;8.45;4.45;;;;;;;21.08;35.00;100532.46;1777490;80;22049;-58
2022/04/20 09:21:53;;;;;;;12.03;4.70;;;;;;;21.08;34.98;100534.66;1725376;81;20974;-58
2022/04/20 09:24:20;;;;;;;11.45;4.85;;;;;;;21.10;34.97;100531.55;1734756;81;20971;-58
2022/04/20 09:26:57;;;;;;;15.80;5.33;;;;;;;21.10;34.95;100533.75;1728813;80;20974;-58
2022/04/20 09:29:23;;;;;;;7.00;4.08;;;;;;;21.12;34.95;100539.81;1740942;82;21107;-58
2022/04/20 09:31:51;;;;;;;14.13;4.60;;;;;;;21.12;34.94;100532.05;1765450;80;20973;-58
2022/04/20 09:34:53;;;;;;;9.93;4.42;;;;;;;21.14;34.93;100533.93;1767685;80;21294;-58
2022/04/20 09:37:13;;;;;;;9.43;4.80;;;;;;;21.14;34.92;100529.78;1761751;80;21025;-58
2022/04/20 09:39:46;;;;;;;7.28;4.45;;;;;;;21.15;34.90;100532.23;1722363;82;21098;-58
2022/04/20 09:42:12;;;;;;;6.33;4.50;;;;;;;21.15;34.92;100532.23;1673253;84;21181;-58
2022/04/20 09:44:42;;;;;;;6.45;3.90;;;;;;;21.17;34.92;100536.06;1721231;82;21013;-58
2022/04/20 09:50:02;;;;;;;15.18;5.05;;;;;;;21.18;34.93;100530.19;1724565;81;21464;-58
2022/04/20 09:52:38;;;;;;;10.08;4.80;;;;;;;21.20;34.95;100529.86;1704847;82;20970;-58
2022/04/20 09:55:06;;;;;;;11.33;5.50;;;;;;;21.20;34.91;100523.77;1732589;82;21072;-58
2022/04/20 09:57:34;;;;;;;10.00;5.25;;;;;;;21.21;34.95;100525.97;1742128;82;21088;-58
2022/04/20 10:00:03;;;;;;;11.93;4.75;;;;;;;21.21;34.99;100517.66;1756420;79;21057;-58
2022/04/20 10:02:30;;;;;;;9.55;4.55;;;;;;;21.22;35.01;100518.70;1759004;79;21362;-58
2022/04/20 10:04:57;;;;;;;9.53;5.22;;;;;;;21.24;35.10;100520.59;1764654;80;21354;-58
2022/04/20 10:07:23;;;;;;;10.40;5.22;;;;;;;21.24;35.11;100513.67;1737149;82;21398;-58
2022/04/20 10:09:49;;;;;;;13.22;5.50;;;;;;;21.25;35.17;100514.48;1757420;81;20995;-58
2022/04/20 10:12:21;;;;;;;11.05;4.80;;;;;;;21.26;35.24;100507.22;1728161;81;20894;-58
2022/04/20 10:17:38;;;;;;;9.45;5.55;;;;;;;21.27;35.30;100503.31;1735259;81;20925;-58
2022/04/20 10:20:14;;;;;;;9.95;5.10;;;;;;;21.28;35.35;100506.90;1732800;81;21541;-58
2022/04/20 10:22:40;;;;;;;8.45;4.50;;;;;;;21.29;35.39;100497.47;1692224;84;20985;-58
2022/04/20 10:25:07;;;;;;;7.65;4.42;;;;;;;21.30;35.42;100488.03;1720428;83;21315;-58
2022/04/20 10:28:17;;;;;;;9.38;4.22;;;;;;;21.31;35.46;100480.77;1719834;83;21137;-58
2022/04/20 10:31:16;;;;;;;8.88;4.40;;;;;;;21.33;35.49;100480.44;1718147;81;21423;-58
2022/04/20 10:33:42;;;;;;;11.97;4.72;;;;;;;21.33;35.49;100472.14;1693202;83;21475;-58
2022/04/20 10:36:11;;;;;;;9.90;5.05;;;;;;;21.32;35.52;100473.27;1766383;80;21413;-58
2022/04/20 10:38:36;;;;;;;7.55;4.22;;;;;;;21.34;35.53;100472.39;1758607;79;21345;-58
2022/04/20 10:41:19;;;;;;;11.53;4.83;;;;;;;21.33;35.61;100470.75;1717679;80;20904;-58
2022/04/20 10:43:46;;;;;;;9.15;4.58;;;;;;;21.34;35.63;100475.94;1708466;82;20980;-58
2022/04/20 10:46:18;;;;;;;8.75;5.33;;;;;;;21.35;35.64;100479.52;1711943;82;21037;-58
2022/04/20 10:49:02;;;;;;;10.60;4.65;;;;;;;21.36;35.59;100477.00;1719423;82;20952;-58
2022/04/20 10:51:36;;;;;;;11.12;4.67;;;;;;;21.37;35.59;100475.87;1679559;82;20927;-58
2022/04/20 10:54:27;;;;;;;9.68;4.50;;;;;;;21.39;35.57;100473.56;1728872;81;21068;-58
2022/04/20 10:57:08;;;;;;;6.55;4.70;;;;;;;21.39;35.56;100470.23;1728915;82;22277;-58
2022/04/20 10:59:34;;;;;;;10.43;4.40;;;;;;;21.40;35.54;100469.09;1762915;81;21013;-58
2022/04/20 11:02:06;;;;;;;8.30;5.40;;;;;;;21.39;35.53;100462.50;1767861;81;20965;-58
2022/04/20 11:04:42;;;;;;;9.03;5.25;;;;;;;21.43;35.52;100459.91;1760009;80;21012;-58
2022/04/20 11:07:12;;;;;;;7.15;3.92;;;;;;;21.41;35.50;100462.42;1706077;83;20989;-58
2022/04/20 11:09:52;;;;;;;11.85;4.55;;;;;;;21.42;35.50;100460.47;1724030;82;36339;-58
2022/04/20 11:21:11;;;;;;;8.93;4.50;;;;;;;21.44;35.47;100458.17;1718406;82;21023;-58
2022/04/20 11:24:05;;;;;;;6.75;4.30;;;;;;;21.46;35.46;100453.70;1692320;84;21048;-58
2022/04/20 11:26:39;;;;;;;5.78;4.03;;;;;;;21.44;35.45;100452.63;1722620;82;22300;-58
2022/04/20 11:29:18;;;;;;;7.83;4.28;;;;;;;21.45;35.46;100449.30;1688141;82;21491;-58
2022/04/20 11:31:48;;;;;;;8.18;4.30;;;;;;;21.43;35.46;100452.39;1682199;83;20972;-58
2022/04/20 11:34:17;;;;;;;7.90;3.75;;;;;;;21.41;35.47;100457.45;1705605;83;21048;-58
2022/04/20 11:36:46;;;;;;;7.70;4.10;;;;;;;21.39;35.48;100452.81;1713991;82;20976;-58
2022/04/20 11:39:14;;;;;;;8.83;4.15;;;;;;;21.36;35.52;100443.23;1714872;82;21386;-59
2022/04/20 11:41:49;;;;;;;4.90;3.92;;;;;;;21.35;35.52;100443.55;1684860;83;21005;-59
2022/04/20 11:44:36;;;;;;;5.87;3.92;;;;;;;21.33;35.52;100443.91;1742583;81;21262;-59
2022/04/20 11:47:04;;;;;;;5.65;4.03;;;;;;;21.30;35.55;100436.84;1735895;80;21065;-59
2022/04/20 11:49:40;;;;;;;7.42;4.00;;;;;;;21.27;35.56;100438.86;1703266;83;21009;-60
2022/04/20 11:52:09;;;;;;;9.35;5.45;;;;;;;21.24;35.57;100430.66;1727016;82;21309;-59
2022/04/20 11:54:36;;;;;;;8.95;3.85;;;;;;;21.23;35.59;100435.13;1743830;82;20961;-59
2022/04/20 11:57:04;;;;;;;7.62;4.28;;;;;;;21.20;35.63;100434.42;1731331;81;21451;-60
2022/04/20 11:59:30;;;;;;;6.62;3.90;;;;;;;21.17;35.66;100424.84;1733428;82;20930;-59
2022/04/20 12:01:56;;;;;;;8.53;4.28;;;;;;;21.15;35.67;100419.38;1732228;82;20931;-59
2022/04/20 12:04:27;;;;;;;7.40;4.50;;;;;;;21.12;35.70;100422.24;1721182;81;21106;-59